createdAt,value
2019-03-30T00:01:16.011Z,10.40
2019-03-30T00:04:05.600Z,10.30
2019-03-30T00:06:55.683Z,10.30
2019-03-30T00:09:45.979Z,10.30
2019-03-30T00:12:35.541Z,10.20
2019-03-30T00:15:26.270Z,10.20
2019-03-30T00:18:16.612Z,10.20
2019-03-30T00:21:06.948Z,10.20
2019-03-30T00:23:57.178Z,10.20
2019-03-30T00:26:46.389Z,10.20
2019-03-30T00:29:36.835Z,10.10
2019-03-30T00:32:26.907Z,10.10
2019-03-30T00:35:16.142Z,10.10
2019-03-30T00:38:05.655Z,10.10
2019-03-30T00:40:56.159Z,10.10
2019-03-30T00:43:46.587Z,10.10
2019-03-30T00:46:37.800Z,10.00
2019-03-30T00:49:27.212Z,10.00
2019-03-30T00:52:17.221Z,10.00
2019-03-30T00:55:06.967Z,10.00
2019-03-30T00:57:57.514Z,10.00
2019-03-30T01:00:46.792Z,9.90
2019-03-30T01:03:37.175Z,9.90
2019-03-30T01:06:27.593Z,9.90
2019-03-30T01:09:17.926Z,9.90
2019-03-30T01:12:07.154Z,9.90
2019-03-30T01:14:56.959Z,9.80
2019-03-30T01:17:47.155Z,9.80
2019-03-30T01:20:36.846Z,9.70
2019-03-30T01:23:26.857Z,9.70
2019-03-30T01:26:16.987Z,9.70
2019-03-30T01:29:07.451Z,9.60
2019-03-30T01:31:57.068Z,9.60
2019-03-30T01:34:47.368Z,9.60
2019-03-30T01:37:36.892Z,9.50
2019-03-30T01:40:27.196Z,9.50
2019-03-30T01:43:16.826Z,9.50
2019-03-30T01:46:07.098Z,9.40
2019-03-30T01:48:57.159Z,9.40
2019-03-30T01:51:47.721Z,9.40
2019-03-30T01:54:37.875Z,9.40
2019-03-30T01:57:27.882Z,9.30
2019-03-30T02:00:18.522Z,9.30
2019-03-30T02:03:07.987Z,9.30
2019-03-30T02:05:57.374Z,9.30
2019-03-30T02:08:47.686Z,9.30
2019-03-30T02:11:37.191Z,9.30
2019-03-30T02:14:27.279Z,9.30
2019-03-30T02:17:20.157Z,9.20
2019-03-30T02:20:16.156Z,9.20
2019-03-30T02:23:07.655Z,9.20
2019-03-30T02:25:57.934Z,9.20
2019-03-30T02:28:49.079Z,9.10
2019-03-30T02:31:38.352Z,9.10
2019-03-30T02:34:28.466Z,9.10
2019-03-30T02:37:17.861Z,9.10
2019-03-30T02:40:09.516Z,9.10
2019-03-30T02:42:59.328Z,9.10
2019-03-30T02:45:49.319Z,9.10
2019-03-30T02:48:38.907Z,9.10
2019-03-30T02:51:28.902Z,9.10
2019-03-30T02:54:19.195Z,9.10
2019-03-30T02:57:09.669Z,9.10
2019-03-30T02:59:59.942Z,9.10
2019-03-30T03:02:49.442Z,9.10
2019-03-30T03:05:39.563Z,9.00
2019-03-30T03:08:29.536Z,9.00
2019-03-30T03:11:19.855Z,9.00
2019-03-30T03:14:09.459Z,9.00
2019-03-30T03:16:58.691Z,9.00
2019-03-30T03:19:49.047Z,8.90
2019-03-30T03:22:38.421Z,8.90
2019-03-30T03:25:28.040Z,8.90
2019-03-30T03:28:18.293Z,8.90
2019-03-30T03:31:08.484Z,8.80
2019-03-30T03:33:59.142Z,8.80
2019-03-30T03:36:49.341Z,8.80
2019-03-30T03:39:40.366Z,8.80
2019-03-30T03:42:30.687Z,8.80
2019-03-30T03:45:20.335Z,8.80
2019-03-30T03:48:09.794Z,8.70
2019-03-30T03:51:03.971Z,8.70
2019-03-30T03:53:53.844Z,8.70
2019-03-30T03:56:45.918Z,8.70
2019-03-30T03:59:37.441Z,8.60
2019-03-30T04:02:30.568Z,8.60
2019-03-30T04:05:23.243Z,8.60
2019-03-30T04:08:14.521Z,8.50
2019-03-30T04:11:05.440Z,8.50
2019-03-30T04:13:57.462Z,8.50
2019-03-30T04:16:47.638Z,8.50
2019-03-30T04:19:37.815Z,8.40
2019-03-30T04:22:27.704Z,8.40
2019-03-30T04:25:17.274Z,8.40
2019-03-30T04:28:07.027Z,8.40
2019-03-30T04:30:57.359Z,8.30
2019-03-30T04:33:47.715Z,8.30
2019-03-30T04:36:37.394Z,8.30
2019-03-30T04:39:27.719Z,8.30
2019-03-30T04:42:17.003Z,8.30
2019-03-30T04:45:09.159Z,8.30
2019-03-30T04:47:59.513Z,8.30
2019-03-30T04:50:49.442Z,8.30
2019-03-30T04:53:39.710Z,8.30
2019-03-30T04:56:29.980Z,8.30
2019-03-30T04:59:19.783Z,8.20
2019-03-30T05:02:09.911Z,8.20
2019-03-30T05:05:00.350Z,8.20
2019-03-30T05:07:49.639Z,8.20
2019-03-30T05:10:39.723Z,8.20
2019-03-30T05:13:28.918Z,8.30
2019-03-30T05:16:19.192Z,8.30
2019-03-30T05:19:09.140Z,8.30
2019-03-30T05:22:11.487Z,8.30
2019-03-30T05:24:50.665Z,8.40
2019-03-30T05:27:40.301Z,8.40
2019-03-30T05:30:30.500Z,8.50
2019-03-30T05:33:20.568Z,8.60
2019-03-30T05:36:10.578Z,8.70
2019-03-30T05:39:00.199Z,8.80
2019-03-30T05:41:50.146Z,8.90
2019-03-30T05:44:41.064Z,9.00
2019-03-30T05:47:31.096Z,9.20
2019-03-30T05:50:20.630Z,9.30
2019-03-30T05:53:10.653Z,9.60
2019-03-30T05:56:00.968Z,9.80
2019-03-30T05:58:51.032Z,10.00
2019-03-30T06:01:41.263Z,10.40
2019-03-30T06:04:31.441Z,10.70
2019-03-30T06:07:21.062Z,11.00
2019-03-30T06:10:11.459Z,11.30
2019-03-30T06:13:01.791Z,11.70
2019-03-30T06:15:50.971Z,12.10
2019-03-30T06:18:44.039Z,12.50
2019-03-30T06:21:34.565Z,12.90
2019-03-30T06:24:24.967Z,13.40
2019-03-30T06:27:15.216Z,13.90
2019-03-30T06:30:15.651Z,14.50
2019-03-30T06:33:04.836Z,15.00
2019-03-30T06:35:54.442Z,15.60
2019-03-30T06:38:44.496Z,16.10
2019-03-30T06:41:34.586Z,16.60
2019-03-30T06:44:24.231Z,17.10
2019-03-30T06:47:14.439Z,17.70
2019-03-30T06:50:04.267Z,18.30
2019-03-30T06:52:58.103Z,18.90
2019-03-30T06:55:45.210Z,19.40
2019-03-30T06:58:35.522Z,20.00
2019-03-30T07:01:26.856Z,20.40
2019-03-30T07:04:17.367Z,20.90
2019-03-30T07:07:09.836Z,21.40
2019-03-30T07:10:02.943Z,22.00
2019-03-30T07:12:54.391Z,22.60
2019-03-30T07:15:46.892Z,23.10
2019-03-30T07:18:37.178Z,23.70
2019-03-30T07:21:27.524Z,24.20
2019-03-30T07:24:17.922Z,24.80
2019-03-30T07:27:08.012Z,25.20
2019-03-30T07:29:58.071Z,25.70
2019-03-30T07:32:49.474Z,26.10
2019-03-30T07:35:39.701Z,26.40
2019-03-30T07:38:30.483Z,26.70
2019-03-30T07:41:20.809Z,27.00
2019-03-30T07:44:11.352Z,27.20
2019-03-30T07:47:01.066Z,27.40
2019-03-30T07:49:51.377Z,27.70
2019-03-30T07:52:41.885Z,28.00
2019-03-30T07:55:32.273Z,28.30
2019-03-30T07:58:21.787Z,28.60
2019-03-30T08:01:12.094Z,29.00
2019-03-30T08:04:02.126Z,29.10
2019-03-30T08:06:52.015Z,29.10
2019-03-30T08:09:41.717Z,29.20
2019-03-30T08:12:31.210Z,29.30
2019-03-30T08:15:20.852Z,29.50
2019-03-30T08:18:12.738Z,29.80
2019-03-30T08:21:03.273Z,30.10
2019-03-30T08:23:53.527Z,30.40
2019-03-30T08:26:44.165Z,30.70
2019-03-30T08:29:34.022Z,31.00
2019-03-30T08:32:24.364Z,31.30
2019-03-30T08:35:15.455Z,31.60
2019-03-30T08:38:05.924Z,31.90
2019-03-30T08:40:56.319Z,32.00
2019-03-30T08:43:45.802Z,32.10
2019-03-30T08:46:36.029Z,32.20
2019-03-30T08:49:26.595Z,32.30
2019-03-30T08:52:16.602Z,32.50
2019-03-30T08:55:08.732Z,32.70
2019-03-30T08:57:58.989Z,32.90
2019-03-30T09:00:51.574Z,33.20
2019-03-30T09:03:41.773Z,33.40
2019-03-30T09:06:31.800Z,33.70
2019-03-30T09:09:21.430Z,33.90
2019-03-30T09:12:11.531Z,34.10
2019-03-30T09:15:01.468Z,34.30
2019-03-30T09:17:52.256Z,34.40
2019-03-30T09:20:42.508Z,34.40
2019-03-30T09:23:32.611Z,34.50
2019-03-30T09:26:22.758Z,34.80
2019-03-30T09:29:12.751Z,35.10
2019-03-30T09:32:13.642Z,35.50
2019-03-30T09:34:54.259Z,35.70
2019-03-30T09:37:44.512Z,36.10
2019-03-30T09:40:34.071Z,36.40
2019-03-30T09:43:24.550Z,36.70
2019-03-30T09:46:16.486Z,37.00
2019-03-30T09:49:06.424Z,37.20
2019-03-30T09:51:57.007Z,37.40
2019-03-30T09:54:47.477Z,37.60
2019-03-30T09:57:38.074Z,37.80
2019-03-30T10:00:28.567Z,37.90
2019-03-30T10:03:18.675Z,38.10
2019-03-30T10:06:08.972Z,38.20
2019-03-30T10:08:59.548Z,38.30
2019-03-30T10:11:49.628Z,38.40
2019-03-30T10:14:40.539Z,38.40
2019-03-30T10:17:30.460Z,38.50
2019-03-30T10:20:20.699Z,38.70
2019-03-30T10:23:11.667Z,38.80
2019-03-30T10:26:02.108Z,39.00
2019-03-30T10:28:52.028Z,39.10
2019-03-30T10:31:42.831Z,39.10
2019-03-30T10:34:32.966Z,39.30
2019-03-30T10:37:23.688Z,39.40
2019-03-30T10:40:14.290Z,39.60
2019-03-30T10:43:04.480Z,39.70
2019-03-30T10:45:55.329Z,39.90
2019-03-30T10:48:45.771Z,40.00
2019-03-30T10:51:37.784Z,40.20
2019-03-30T10:54:28.553Z,40.30
2019-03-30T10:57:19.324Z,40.30
2019-03-30T11:00:12.058Z,40.30
2019-03-30T11:03:02.596Z,40.20
2019-03-30T11:05:53.068Z,40.10
2019-03-30T11:08:43.070Z,40.10
2019-03-30T11:11:33.905Z,39.90
2019-03-30T11:14:24.753Z,39.90
2019-03-30T11:17:14.986Z,39.90
2019-03-30T11:20:05.185Z,40.20
2019-03-30T11:22:54.690Z,40.70
2019-03-30T11:25:45.488Z,40.60
2019-03-30T11:28:36.997Z,39.80
2019-03-30T11:31:26.261Z,38.80
2019-03-30T11:34:16.776Z,37.00
2019-03-30T11:37:06.387Z,35.50
2019-03-30T11:39:57.675Z,33.80
2019-03-30T11:42:47.448Z,32.20
2019-03-30T11:45:37.549Z,31.00
2019-03-30T11:48:27.879Z,29.50
2019-03-30T11:51:18.092Z,28.30
2019-03-30T11:54:08.149Z,27.20
2019-03-30T11:56:57.736Z,26.40
2019-03-30T11:59:47.205Z,25.80
2019-03-30T12:02:37.388Z,25.30
2019-03-30T12:05:26.861Z,24.80
2019-03-30T12:08:16.839Z,24.30
2019-03-30T12:11:07.152Z,23.90
2019-03-30T12:13:57.291Z,23.60
2019-03-30T12:16:47.659Z,23.50
2019-03-30T12:19:38.207Z,23.50
2019-03-30T12:22:28.676Z,23.60
2019-03-30T12:25:18.843Z,23.70
2019-03-30T12:28:08.327Z,23.80
2019-03-30T12:30:58.363Z,23.80
2019-03-30T12:33:48.379Z,23.90
2019-03-30T12:36:38.344Z,23.80
2019-03-30T12:39:28.692Z,23.80
2019-03-30T12:42:18.982Z,23.80
2019-03-30T12:45:13.103Z,23.80
2019-03-30T12:48:03.103Z,23.70
2019-03-30T12:50:53.484Z,23.60
2019-03-30T12:53:50.004Z,23.60
2019-03-30T12:56:34.792Z,23.50
2019-03-30T12:59:24.979Z,23.50
2019-03-30T13:02:15.262Z,23.50
2019-03-30T13:07:56.545Z,23.40
2019-03-30T13:10:46.528Z,23.40
2019-03-30T13:13:36.955Z,23.40
2019-03-30T13:16:26.987Z,23.40
2019-03-30T13:19:17.215Z,23.30
2019-03-30T13:22:07.395Z,23.30
2019-03-30T13:24:57.640Z,23.30
2019-03-30T13:27:47.855Z,23.30
2019-03-30T13:30:37.869Z,23.30
2019-03-30T13:33:28.382Z,23.30
2019-03-30T13:36:20.230Z,23.30
2019-03-30T13:39:10.233Z,23.20
2019-03-30T13:41:59.613Z,23.20
2019-03-30T13:44:49.099Z,23.20
2019-03-30T13:47:39.447Z,23.20
2019-03-30T13:50:31.123Z,23.10
2019-03-30T13:53:22.100Z,23.10
2019-03-30T13:56:17.314Z,23.00
2019-03-30T13:59:03.596Z,23.00
2019-03-30T14:01:53.737Z,22.90
2019-03-30T14:04:46.352Z,22.80
2019-03-30T14:07:39.447Z,22.80
2019-03-30T14:10:29.622Z,22.80
2019-03-30T14:13:19.090Z,22.70
2019-03-30T14:16:08.666Z,22.70
2019-03-30T14:18:58.988Z,22.70
2019-03-30T14:21:48.716Z,22.60
2019-03-30T14:24:39.046Z,22.60
2019-03-30T14:27:28.799Z,22.50
2019-03-30T14:30:19.240Z,22.50
2019-03-30T14:33:09.537Z,22.50
2019-03-30T14:35:59.181Z,22.40
2019-03-30T14:38:49.378Z,22.40
2019-03-30T14:41:39.093Z,22.40
2019-03-30T14:44:28.839Z,22.30
2019-03-30T14:47:18.815Z,22.30
2019-03-30T14:50:09.185Z,22.30
2019-03-30T14:52:58.681Z,22.30
2019-03-30T14:55:50.045Z,22.30
2019-03-30T14:58:40.633Z,22.20
2019-03-30T15:01:30.904Z,22.20
2019-03-30T15:04:21.210Z,22.20
2019-03-30T15:07:11.396Z,22.10
2019-03-30T15:10:01.616Z,22.10
2019-03-30T15:12:52.593Z,22.10
2019-03-30T15:15:42.627Z,22.10
2019-03-30T15:18:32.376Z,22.00
2019-03-30T15:21:22.776Z,22.00
2019-03-30T15:24:12.944Z,21.90
2019-03-30T15:27:03.020Z,21.90
2019-03-30T15:29:53.368Z,21.90
2019-03-30T15:32:43.385Z,21.80
2019-03-30T15:35:33.523Z,21.80
2019-03-30T15:38:23.879Z,21.80
2019-03-30T15:41:13.183Z,21.70
2019-03-30T15:44:03.272Z,21.70
2019-03-30T15:46:55.426Z,21.60
2019-03-30T15:49:46.294Z,21.60
2019-03-30T15:52:35.807Z,21.60
2019-03-30T15:55:24.959Z,21.50
2019-03-30T15:58:14.395Z,21.50
2019-03-30T16:01:04.623Z,21.40
2019-03-30T16:03:54.614Z,21.30
2019-03-30T16:06:46.623Z,21.20
2019-03-30T16:09:37.305Z,21.20
2019-03-30T16:12:27.507Z,21.20
2019-03-30T16:15:17.786Z,21.20
2019-03-30T16:18:07.956Z,21.10
2019-03-30T16:20:58.115Z,21.10
2019-03-30T16:23:48.127Z,21.00
2019-03-30T16:26:42.184Z,21.00
2019-03-30T16:29:29.693Z,20.90
2019-03-30T16:32:19.015Z,20.90
2019-03-30T16:35:09.178Z,20.80
2019-03-30T16:37:58.607Z,20.70
2019-03-30T16:40:48.697Z,20.70
2019-03-30T16:43:38.388Z,20.60
2019-03-30T16:46:28.473Z,20.60
2019-03-30T16:49:17.699Z,20.50
2019-03-30T16:52:07.176Z,20.40
2019-03-30T16:54:57.215Z,20.40
2019-03-30T16:57:48.945Z,20.30
2019-03-30T17:00:55.126Z,20.30
2019-03-30T17:03:30.620Z,20.20
2019-03-30T17:06:20.125Z,20.10
2019-03-30T17:09:09.855Z,20.10
2019-03-30T17:11:59.667Z,20.00
2019-03-30T17:14:49.984Z,20.00
2019-03-30T17:17:40.039Z,19.90
2019-03-30T17:20:30.818Z,19.80
2019-03-30T17:23:20.271Z,19.70
2019-03-30T17:26:09.530Z,19.70
2019-03-30T17:28:59.974Z,19.60
2019-03-30T17:31:50.484Z,19.50
2019-03-30T17:34:40.772Z,19.40
2019-03-30T17:37:31.048Z,19.30
2019-03-30T17:40:21.180Z,19.20
2019-03-30T17:43:10.680Z,19.10
2019-03-30T17:46:00.143Z,19.00
2019-03-30T17:48:50.619Z,18.90
2019-03-30T17:51:40.853Z,18.80
2019-03-30T17:54:30.978Z,18.70
2019-03-30T17:57:20.829Z,18.60
2019-03-30T18:00:13.582Z,18.50
2019-03-30T18:03:04.140Z,18.40
2019-03-30T18:05:53.640Z,18.30
2019-03-30T18:08:43.335Z,18.20
2019-03-30T18:11:33.354Z,18.20
2019-03-30T18:14:22.928Z,18.00
2019-03-30T18:17:12.508Z,18.00
2019-03-30T18:20:01.675Z,17.80
2019-03-30T18:22:52.052Z,17.80
2019-03-30T18:25:42.252Z,17.60
2019-03-30T18:28:32.435Z,17.60
2019-03-30T18:31:22.627Z,17.50
2019-03-30T18:34:11.931Z,17.40
2019-03-30T18:37:02.536Z,17.40
2019-03-30T18:39:53.191Z,17.30
2019-03-30T18:42:42.791Z,17.20
2019-03-30T18:45:33.395Z,17.10
2019-03-30T18:48:23.435Z,17.00
2019-03-30T18:51:13.781Z,17.00
2019-03-30T18:54:04.224Z,16.90
2019-03-30T18:56:54.420Z,16.90
2019-03-30T18:59:44.423Z,16.80
2019-03-30T19:02:36.186Z,16.70
2019-03-30T19:05:25.610Z,16.60
2019-03-30T19:08:15.372Z,16.40
2019-03-30T19:11:05.800Z,16.30
2019-03-30T19:13:55.595Z,16.20
2019-03-30T19:16:45.403Z,16.20
2019-03-30T19:19:35.062Z,16.10
2019-03-30T19:22:26.458Z,16.10
2019-03-30T19:25:17.449Z,16.00
2019-03-30T19:28:12.600Z,16.00
2019-03-30T19:31:05.066Z,15.90
2019-03-30T19:33:57.348Z,15.80
2019-03-30T19:36:49.127Z,15.70
2019-03-30T19:39:41.715Z,15.60
2019-03-30T19:42:32.156Z,15.50
2019-03-30T19:45:22.349Z,15.40
2019-03-30T19:48:12.433Z,15.30
2019-03-30T19:51:02.426Z,15.20
2019-03-30T19:53:52.492Z,15.20
2019-03-30T19:56:42.815Z,15.20
2019-03-30T19:59:32.071Z,15.10
2019-03-30T20:02:22.383Z,15.10
2019-03-30T20:05:12.713Z,15.00
2019-03-30T20:08:11.943Z,14.90
2019-03-30T20:10:54.340Z,14.90
2019-03-30T20:13:44.393Z,14.90
2019-03-30T20:16:34.568Z,14.80
2019-03-30T20:19:25.210Z,14.80
2019-03-30T20:22:16.258Z,14.80
2019-03-30T20:25:07.687Z,14.70
2019-03-30T20:27:57.338Z,14.70
2019-03-30T20:30:47.452Z,14.70
2019-03-30T20:33:37.579Z,14.60
2019-03-30T20:36:27.046Z,14.60
2019-03-30T20:39:17.495Z,14.60
2019-03-30T20:42:07.623Z,14.60
2019-03-30T20:44:57.885Z,14.50
2019-03-30T20:47:47.443Z,14.50
2019-03-30T20:50:37.837Z,14.40
2019-03-30T20:53:27.802Z,14.40
2019-03-30T20:56:17.990Z,14.40
2019-03-30T20:59:07.815Z,14.30
2019-03-30T21:01:57.237Z,14.30
2019-03-30T21:04:47.318Z,14.20
2019-03-30T21:07:37.380Z,14.20
2019-03-30T21:10:26.896Z,14.20
2019-03-30T21:13:17.175Z,14.20
2019-03-30T21:16:06.869Z,14.10
2019-03-30T21:18:56.468Z,14.10
2019-03-30T21:21:46.595Z,14.00
2019-03-30T21:24:36.663Z,13.90
2019-03-30T21:27:28.127Z,13.80
2019-03-30T21:30:17.792Z,13.80
2019-03-30T21:33:07.489Z,13.70
2019-03-30T21:35:57.783Z,13.70
2019-03-30T21:38:47.951Z,13.70
2019-03-30T21:41:38.182Z,13.60
2019-03-30T21:44:27.712Z,13.60
2019-03-30T21:47:17.956Z,13.60
2019-03-30T21:50:09.904Z,13.50
2019-03-30T21:53:00.063Z,13.50
2019-03-30T21:55:50.239Z,13.40
2019-03-30T21:58:40.210Z,13.40
2019-03-30T22:01:30.156Z,13.30
2019-03-30T22:04:19.655Z,13.30
2019-03-30T22:07:09.753Z,13.20
2019-03-30T22:09:59.634Z,13.20
2019-03-30T22:12:49.448Z,13.20
2019-03-30T22:15:39.812Z,13.10
2019-03-30T22:18:29.932Z,13.10
2019-03-30T22:21:19.459Z,13.00
2019-03-30T22:24:09.500Z,13.00
2019-03-30T22:26:59.471Z,12.90
2019-03-30T22:29:49.033Z,12.90
2019-03-30T22:32:38.579Z,12.80
2019-03-30T22:35:28.082Z,12.80
2019-03-30T22:38:18.542Z,12.80
2019-03-30T22:41:08.807Z,12.70
2019-03-30T22:43:58.266Z,12.70
2019-03-30T22:46:48.348Z,12.70
2019-03-30T22:49:38.048Z,12.70
2019-03-30T22:52:28.140Z,12.70
2019-03-30T22:55:17.527Z,12.70
2019-03-30T22:58:07.982Z,12.80
2019-03-30T23:01:06.871Z,12.80
2019-03-30T23:03:56.924Z,12.80
2019-03-30T23:06:47.190Z,12.80
2019-03-30T23:09:37.204Z,12.80
2019-03-30T23:12:27.693Z,12.80
2019-03-30T23:15:17.979Z,12.80
2019-03-30T23:18:08.496Z,12.90
2019-03-30T23:20:57.855Z,12.90
2019-03-30T23:23:47.890Z,12.90
2019-03-30T23:26:38.117Z,12.90
2019-03-30T23:29:30.631Z,12.90
2019-03-30T23:32:20.955Z,13.00
2019-03-30T23:35:11.463Z,13.00
2019-03-30T23:38:00.746Z,13.00
2019-03-30T23:40:50.701Z,13.00
2019-03-30T23:43:40.675Z,13.00
2019-03-30T23:46:31.423Z,13.00
2019-03-30T23:49:21.814Z,12.90
2019-03-30T23:52:11.364Z,12.90
2019-03-30T23:55:01.687Z,12.90
2019-03-30T23:57:51.161Z,12.90
